sensor_id;sensor_type;location;lat;lon;timestamp;P1;durP1;ratioP1;P2;durP2;ratioP2
61036;SDS011;72210;47.076;15.430;2024-02-26T00:00:20;0.70;;;0.60;;
61036;SDS011;72210;47.076;15.430;2024-02-26T00:02:48;0.70;;;0.60;;
61036;SDS011;72210;47.076;15.430;2024-02-26T00:05:16;0.60;;;0.60;;
61036;SDS011;72210;47.076;15.430;2024-02-26T00:07:44;0.70;;;0.60;;
61036;SDS011;72210;47.076;15.430;2024-02-26T00:10:11;0.60;;;0.60;;
61036;SDS011;72210;47.076;15.430;2024-02-26T00:12:39;0.73;;;0.60;;
61036;SDS011;72210;47.076;15.430;2024-02-26T00:15:07;0.80;;;0.60;;
61036;SDS011;72210;47.076;15.430;2024-02-26T00:17:37;0.82;;;0.70;;
61036;SDS011;72210;47.076;15.430;2024-02-26T00:20:05;0.70;;;0.60;;
61036;SDS011;72210;47.076;15.430;2024-02-26T00:22:33;0.88;;;0.60;;
61036;SDS011;72210;47.076;15.430;2024-02-26T00:25:01;0.80;;;0.60;;
61036;SDS011;72210;47.076;15.430;2024-02-26T00:27:29;0.73;;;0.60;;
61036;SDS011;72210;47.076;15.430;2024-02-26T00:29:56;0.80;;;0.60;;
61036;SDS011;72210;47.076;15.430;2024-02-26T00:32:24;0.70;;;0.60;;
61036;SDS011;72210;47.076;15.430;2024-02-26T00:34:52;0.70;;;0.60;;
61036;SDS011;72210;47.076;15.430;2024-02-26T00:37:20;0.60;;;0.60;;
61036;SDS011;72210;47.076;15.430;2024-02-26T00:39:47;0.70;;;0.60;;
61036;SDS011;72210;47.076;15.430;2024-02-26T00:42:14;0.70;;;0.60;;
61036;SDS011;72210;47.076;15.430;2024-02-26T00:44:42;0.80;;;0.60;;
61036;SDS011;72210;47.076;15.430;2024-02-26T00:47:09;0.65;;;0.60;;
61036;SDS011;72210;47.076;15.430;2024-02-26T00:49:37;0.60;;;0.60;;
61036;SDS011;72210;47.076;15.430;2024-02-26T00:52:06;0.70;;;0.60;;
61036;SDS011;72210;47.076;15.430;2024-02-26T00:54:33;0.70;;;0.60;;
61036;SDS011;72210;47.076;15.430;2024-02-26T00:57:01;0.88;;;0.70;;
61036;SDS011;72210;47.076;15.430;2024-02-26T00:59:28;0.88;;;0.60;;
61036;SDS011;72210;47.076;15.430;2024-02-26T01:01:56;0.70;;;0.60;;
61036;SDS011;72210;47.076;15.430;2024-02-26T01:04:23;0.70;;;0.60;;
61036;SDS011;72210;47.076;15.430;2024-02-26T01:06:51;0.80;;;0.60;;
61036;SDS011;72210;47.076;15.430;2024-02-26T01:09:20;0.70;;;0.60;;
61036;SDS011;72210;47.076;15.430;2024-02-26T01:11:48;0.70;;;0.60;;
61036;SDS011;72210;47.076;15.430;2024-02-26T01:14:15;0.80;;;0.60;;
61036;SDS011;72210;47.076;15.430;2024-02-26T01:16:42;0.80;;;0.68;;
61036;SDS011;72210;47.076;15.430;2024-02-26T01:19:10;0.70;;;0.60;;
61036;SDS011;72210;47.076;15.430;2024-02-26T01:21:37;0.75;;;0.60;;
61036;SDS011;72210;47.076;15.430;2024-02-26T01:24:05;0.80;;;0.60;;
61036;SDS011;72210;47.076;15.430;2024-02-26T01:26:34;0.80;;;0.60;;
61036;SDS011;72210;47.076;15.430;2024-02-26T01:29:01;0.73;;;0.63;;
61036;SDS011;72210;47.076;15.430;2024-02-26T01:31:28;0.70;;;0.60;;
61036;SDS011;72210;47.076;15.430;2024-02-26T01:33:56;0.85;;;0.70;;
61036;SDS011;72210;47.076;15.430;2024-02-26T01:36:24;0.60;;;0.60;;
61036;SDS011;72210;47.076;15.430;2024-02-26T01:38:51;0.73;;;0.60;;
61036;SDS011;72210;47.076;15.430;2024-02-26T01:41:18;0.80;;;0.60;;
61036;SDS011;72210;47.076;15.430;2024-02-26T01:43:50;0.80;;;0.60;;
61036;SDS011;72210;47.076;15.430;2024-02-26T01:46:18;0.80;;;0.60;;
61036;SDS011;72210;47.076;15.430;2024-02-26T01:48:45;0.90;;;0.70;;
61036;SDS011;72210;47.076;15.430;2024-02-26T01:51:14;0.80;;;0.60;;
61036;SDS011;72210;47.076;15.430;2024-02-26T01:53:44;0.80;;;0.60;;
61036;SDS011;72210;47.076;15.430;2024-02-26T01:56:11;0.80;;;0.60;;
61036;SDS011;72210;47.076;15.430;2024-02-26T01:58:39;0.70;;;0.60;;
61036;SDS011;72210;47.076;15.430;2024-02-26T02:01:09;0.82;;;0.63;;
61036;SDS011;72210;47.076;15.430;2024-02-26T02:03:38;0.80;;;0.70;;
61036;SDS011;72210;47.076;15.430;2024-02-26T02:06:06;0.80;;;0.60;;
61036;SDS011;72210;47.076;15.430;2024-02-26T02:08:35;0.80;;;0.70;;
61036;SDS011;72210;47.076;15.430;2024-02-26T02:11:02;0.80;;;0.60;;
61036;SDS011;72210;47.076;15.430;2024-02-26T02:13:30;0.80;;;0.60;;
61036;SDS011;72210;47.076;15.430;2024-02-26T02:15:57;0.80;;;0.60;;
61036;SDS011;72210;47.076;15.430;2024-02-26T02:18:27;0.80;;;0.60;;
61036;SDS011;72210;47.076;15.430;2024-02-26T02:20:56;0.80;;;0.60;;
61036;SDS011;72210;47.076;15.430;2024-02-26T02:23:24;0.70;;;0.60;;
61036;SDS011;72210;47.076;15.430;2024-02-26T02:25:51;0.88;;;0.70;;
61036;SDS011;72210;47.076;15.430;2024-02-26T02:28:19;0.70;;;0.60;;
61036;SDS011;72210;47.076;15.430;2024-02-26T02:30:47;0.80;;;0.60;;
61036;SDS011;72210;47.076;15.430;2024-02-26T02:33:15;0.80;;;0.60;;
61036;SDS011;72210;47.076;15.430;2024-02-26T02:35:46;0.82;;;0.70;;
61036;SDS011;72210;47.076;15.430;2024-02-26T02:38:19;0.80;;;0.63;;
61036;SDS011;72210;47.076;15.430;2024-02-26T02:40:47;0.95;;;0.75;;
61036;SDS011;72210;47.076;15.430;2024-02-26T02:43:14;0.75;;;0.60;;
61036;SDS011;72210;47.076;15.430;2024-02-26T02:45:41;0.70;;;0.60;;
61036;SDS011;72210;47.076;15.430;2024-02-26T02:48:10;0.90;;;0.70;;
61036;SDS011;72210;47.076;15.430;2024-02-26T02:50:38;0.70;;;0.60;;
61036;SDS011;72210;47.076;15.430;2024-02-26T02:53:05;0.88;;;0.60;;
61036;SDS011;72210;47.076;15.430;2024-02-26T02:55:34;0.80;;;0.65;;
61036;SDS011;72210;47.076;15.430;2024-02-26T02:58:02;0.80;;;0.60;;
61036;SDS011;72210;47.076;15.430;2024-02-26T03:00:30;0.90;;;0.70;;
61036;SDS011;72210;47.076;15.430;2024-02-26T03:02:58;0.80;;;0.60;;
61036;SDS011;72210;47.076;15.430;2024-02-26T03:05:26;0.80;;;0.60;;
61036;SDS011;72210;47.076;15.430;2024-02-26T03:07:54;0.70;;;0.60;;
61036;SDS011;72210;47.076;15.430;2024-02-26T03:10:21;0.80;;;0.60;;
61036;SDS011;72210;47.076;15.430;2024-02-26T03:12:50;0.80;;;0.60;;
61036;SDS011;72210;47.076;15.430;2024-02-26T03:15:18;0.70;;;0.60;;
61036;SDS011;72210;47.076;15.430;2024-02-26T03:17:48;0.90;;;0.70;;
61036;SDS011;72210;47.076;15.430;2024-02-26T03:20:16;0.80;;;0.60;;
61036;SDS011;72210;47.076;15.430;2024-02-26T03:22:43;0.80;;;0.60;;
61036;SDS011;72210;47.076;15.430;2024-02-26T03:25:10;0.80;;;0.70;;
61036;SDS011;72210;47.076;15.430;2024-02-26T03:27:37;0.80;;;0.68;;
61036;SDS011;72210;47.076;15.430;2024-02-26T03:30:08;0.80;;;0.60;;
61036;SDS011;72210;47.076;15.430;2024-02-26T03:32:38;0.90;;;0.70;;
61036;SDS011;72210;47.076;15.430;2024-02-26T03:35:05;0.82;;;0.70;;
61036;SDS011;72210;47.076;15.430;2024-02-26T03:37:33;0.80;;;0.60;;
61036;SDS011;72210;47.076;15.430;2024-02-26T03:40:00;0.80;;;0.68;;
61036;SDS011;72210;47.076;15.430;2024-02-26T03:42:27;0.80;;;0.60;;
61036;SDS011;72210;47.076;15.430;2024-02-26T03:44:56;0.70;;;0.60;;
61036;SDS011;72210;47.076;15.430;2024-02-26T03:47:25;0.70;;;0.60;;
61036;SDS011;72210;47.076;15.430;2024-02-26T03:49:52;0.80;;;0.60;;
61036;SDS011;72210;47.076;15.430;2024-02-26T03:52:19;0.80;;;0.70;;
61036;SDS011;72210;47.076;15.430;2024-02-26T03:54:48;0.88;;;0.70;;
61036;SDS011;72210;47.076;15.430;2024-02-26T03:57:16;0.75;;;0.60;;
61036;SDS011;72210;47.076;15.430;2024-02-26T03:59:44;0.73;;;0.60;;
61036;SDS011;72210;47.076;15.430;2024-02-26T04:02:11;0.73;;;0.60;;
61036;SDS011;72210;47.076;15.430;2024-02-26T04:04:40;0.80;;;0.70;;
61036;SDS011;72210;47.076;15.430;2024-02-26T04:07:08;0.80;;;0.60;;
61036;SDS011;72210;47.076;15.430;2024-02-26T04:09:37;0.80;;;0.65;;
61036;SDS011;72210;47.076;15.430;2024-02-26T04:12:05;0.90;;;0.70;;
61036;SDS011;72210;47.076;15.430;2024-02-26T04:14:32;0.80;;;0.60;;
61036;SDS011;72210;47.076;15.430;2024-02-26T04:17:00;0.73;;;0.60;;
61036;SDS011;72210;47.076;15.430;2024-02-26T04:19:27;0.88;;;0.70;;
61036;SDS011;72210;47.076;15.430;2024-02-26T04:21:57;0.88;;;0.60;;
61036;SDS011;72210;47.076;15.430;2024-02-26T04:24:24;0.75;;;0.60;;
61036;SDS011;72210;47.076;15.430;2024-02-26T04:26:52;0.90;;;0.70;;
61036;SDS011;72210;47.076;15.430;2024-02-26T04:29:20;0.80;;;0.70;;
61036;SDS011;72210;47.076;15.430;2024-02-26T04:31:48;0.90;;;0.70;;
61036;SDS011;72210;47.076;15.430;2024-02-26T04:34:17;0.80;;;0.70;;
61036;SDS011;72210;47.076;15.430;2024-02-26T04:36:44;0.90;;;0.70;;
61036;SDS011;72210;47.076;15.430;2024-02-26T04:39:13;0.80;;;0.63;;
61036;SDS011;72210;47.076;15.430;2024-02-26T04:41:40;0.80;;;0.70;;
61036;SDS011;72210;47.076;15.430;2024-02-26T04:44:08;0.90;;;0.70;;
61036;SDS011;72210;47.076;15.430;2024-02-26T04:46:37;0.80;;;0.60;;
61036;SDS011;72210;47.076;15.430;2024-02-26T04:49:04;1.10;;;0.70;;
61036;SDS011;72210;47.076;15.430;2024-02-26T04:51:33;0.90;;;0.70;;
61036;SDS011;72210;47.076;15.430;2024-02-26T04:54:00;0.80;;;0.60;;
61036;SDS011;72210;47.076;15.430;2024-02-26T04:56:31;0.80;;;0.60;;
61036;SDS011;72210;47.076;15.430;2024-02-26T04:58:59;0.90;;;0.70;;
61036;SDS011;72210;47.076;15.430;2024-02-26T05:01:26;0.82;;;0.63;;
61036;SDS011;72210;47.076;15.430;2024-02-26T05:03:54;0.90;;;0.70;;
61036;SDS011;72210;47.076;15.430;2024-02-26T05:06:22;0.80;;;0.60;;
61036;SDS011;72210;47.076;15.430;2024-02-26T05:08:49;0.80;;;0.60;;
61036;SDS011;72210;47.076;15.430;2024-02-26T05:11:16;0.80;;;0.70;;
61036;SDS011;72210;47.076;15.430;2024-02-26T05:13:47;0.80;;;0.70;;
61036;SDS011;72210;47.076;15.430;2024-02-26T05:16:15;0.80;;;0.60;;
61036;SDS011;72210;47.076;15.430;2024-02-26T05:18:42;0.77;;;0.60;;
61036;SDS011;72210;47.076;15.430;2024-02-26T05:21:09;0.80;;;0.60;;
61036;SDS011;72210;47.076;15.430;2024-02-26T05:23:37;0.80;;;0.70;;
61036;SDS011;72210;47.076;15.430;2024-02-26T05:26:04;0.80;;;0.60;;
61036;SDS011;72210;47.076;15.430;2024-02-26T05:28:32;0.80;;;0.60;;
61036;SDS011;72210;47.076;15.430;2024-02-26T05:31:01;1.00;;;0.70;;
61036;SDS011;72210;47.076;15.430;2024-02-26T05:33:29;0.80;;;0.60;;
61036;SDS011;72210;47.076;15.430;2024-02-26T05:35:58;0.90;;;0.70;;
61036;SDS011;72210;47.076;15.430;2024-02-26T05:38:25;0.80;;;0.60;;
61036;SDS011;72210;47.076;15.430;2024-02-26T05:40:54;0.90;;;0.70;;
61036;SDS011;72210;47.076;15.430;2024-02-26T05:43:22;0.80;;;0.60;;
61036;SDS011;72210;47.076;15.430;2024-02-26T05:45:49;0.98;;;0.75;;
61036;SDS011;72210;47.076;15.430;2024-02-26T05:48:18;0.80;;;0.60;;
61036;SDS011;72210;47.076;15.430;2024-02-26T05:50:46;0.90;;;0.70;;
61036;SDS011;72210;47.076;15.430;2024-02-26T05:53:14;0.80;;;0.70;;
61036;SDS011;72210;47.076;15.430;2024-02-26T05:55:42;0.80;;;0.68;;
61036;SDS011;72210;47.076;15.430;2024-02-26T05:58:10;0.80;;;0.68;;
61036;SDS011;72210;47.076;15.430;2024-02-26T06:00:37;0.80;;;0.60;;
61036;SDS011;72210;47.076;15.430;2024-02-26T06:03:05;0.80;;;0.60;;
61036;SDS011;72210;47.076;15.430;2024-02-26T06:05:34;0.80;;;0.70;;
61036;SDS011;72210;47.076;15.430;2024-02-26T06:08:01;0.80;;;0.60;;
61036;SDS011;72210;47.076;15.430;2024-02-26T06:10:29;0.80;;;0.60;;
61036;SDS011;72210;47.076;15.430;2024-02-26T06:12:56;1.23;;;0.70;;
61036;SDS011;72210;47.076;15.430;2024-02-26T06:15:24;0.80;;;0.60;;
61036;SDS011;72210;47.076;15.430;2024-02-26T06:17:52;0.90;;;0.70;;
61036;SDS011;72210;47.076;15.430;2024-02-26T06:20:19;0.80;;;0.60;;
61036;SDS011;72210;47.076;15.430;2024-02-26T06:22:48;0.80;;;0.60;;
61036;SDS011;72210;47.076;15.430;2024-02-26T06:25:16;0.93;;;0.70;;
61036;SDS011;72210;47.076;15.430;2024-02-26T06:27:44;0.90;;;0.70;;
61036;SDS011;72210;47.076;15.430;2024-02-26T06:30:13;1.00;;;0.77;;
61036;SDS011;72210;47.076;15.430;2024-02-26T06:32:41;0.80;;;0.60;;
61036;SDS011;72210;47.076;15.430;2024-02-26T06:35:09;0.90;;;0.70;;
61036;SDS011;72210;47.076;15.430;2024-02-26T06:37:37;0.80;;;0.68;;
61036;SDS011;72210;47.076;15.430;2024-02-26T06:40:08;0.80;;;0.70;;
61036;SDS011;72210;47.076;15.430;2024-02-26T06:42:36;0.80;;;0.60;;
61036;SDS011;72210;47.076;15.430;2024-02-26T06:45:04;0.80;;;0.60;;
61036;SDS011;72210;47.076;15.430;2024-02-26T06:47:33;0.80;;;0.60;;
61036;SDS011;72210;47.076;15.430;2024-02-26T06:50:01;0.75;;;0.60;;
61036;SDS011;72210;47.076;15.430;2024-02-26T06:52:28;0.70;;;0.60;;
61036;SDS011;72210;47.076;15.430;2024-02-26T06:54:56;0.80;;;0.60;;
61036;SDS011;72210;47.076;15.430;2024-02-26T06:57:25;0.80;;;0.70;;
61036;SDS011;72210;47.076;15.430;2024-02-26T06:59:52;0.90;;;0.70;;
61036;SDS011;72210;47.076;15.430;2024-02-26T07:02:19;0.90;;;0.70;;
61036;SDS011;72210;47.076;15.430;2024-02-26T07:04:47;0.80;;;0.63;;
61036;SDS011;72210;47.076;15.430;2024-02-26T07:07:14;0.85;;;0.65;;
61036;SDS011;72210;47.076;15.430;2024-02-26T07:09:42;0.70;;;0.60;;
61036;SDS011;72210;47.076;15.430;2024-02-26T07:12:10;0.85;;;0.70;;
61036;SDS011;72210;47.076;15.430;2024-02-26T07:14:39;0.90;;;0.70;;
61036;SDS011;72210;47.076;15.430;2024-02-26T07:17:06;0.70;;;0.60;;
61036;SDS011;72210;47.076;15.430;2024-02-26T07:19:34;0.90;;;0.60;;
61036;SDS011;72210;47.076;15.430;2024-02-26T07:22:02;0.70;;;0.60;;
61036;SDS011;72210;47.076;15.430;2024-02-26T07:24:30;0.68;;;0.60;;
61036;SDS011;72210;47.076;15.430;2024-02-26T07:26:58;0.80;;;0.70;;
61036;SDS011;72210;47.076;15.430;2024-02-26T07:29:25;1.02;;;0.70;;
61036;SDS011;72210;47.076;15.430;2024-02-26T07:31:57;0.70;;;0.60;;
61036;SDS011;72210;47.076;15.430;2024-02-26T07:34:25;0.70;;;0.60;;
61036;SDS011;72210;47.076;15.430;2024-02-26T07:36:52;0.90;;;0.70;;
61036;SDS011;72210;47.076;15.430;2024-02-26T07:39:20;0.80;;;0.60;;
61036;SDS011;72210;47.076;15.430;2024-02-26T07:41:47;0.80;;;0.60;;
61036;SDS011;72210;47.076;15.430;2024-02-26T07:44:16;0.70;;;0.60;;
61036;SDS011;72210;47.076;15.430;2024-02-26T07:46:46;0.70;;;0.60;;
61036;SDS011;72210;47.076;15.430;2024-02-26T07:49:15;0.68;;;0.60;;
61036;SDS011;72210;47.076;15.430;2024-02-26T07:51:44;0.70;;;0.60;;
61036;SDS011;72210;47.076;15.430;2024-02-26T07:54:13;0.60;;;0.60;;
61036;SDS011;72210;47.076;15.430;2024-02-26T07:56:42;0.70;;;0.60;;
61036;SDS011;72210;47.076;15.430;2024-02-26T07:59:10;0.77;;;0.60;;
61036;SDS011;72210;47.076;15.430;2024-02-26T08:01:37;0.80;;;0.70;;
61036;SDS011;72210;47.076;15.430;2024-02-26T08:04:05;0.80;;;0.70;;
61036;SDS011;72210;47.076;15.430;2024-02-26T08:06:33;0.80;;;0.60;;
61036;SDS011;72210;47.076;15.430;2024-02-26T08:09:04;0.60;;;0.60;;
61036;SDS011;72210;47.076;15.430;2024-02-26T08:11:31;0.70;;;0.60;;
61036;SDS011;72210;47.076;15.430;2024-02-26T08:13:59;0.68;;;0.60;;
61036;SDS011;72210;47.076;15.430;2024-02-26T08:16:26;0.60;;;0.60;;
61036;SDS011;72210;47.076;15.430;2024-02-26T08:18:54;0.90;;;0.60;;
61036;SDS011;72210;47.076;15.430;2024-02-26T08:21:22;0.60;;;0.60;;
61036;SDS011;72210;47.076;15.430;2024-02-26T08:23:51;0.90;;;0.70;;
61036;SDS011;72210;47.076;15.430;2024-02-26T08:26:18;0.50;;;0.50;;
61036;SDS011;72210;47.076;15.430;2024-02-26T08:28:45;0.60;;;0.60;;
61036;SDS011;72210;47.076;15.430;2024-02-26T08:31:15;0.60;;;0.50;;
61036;SDS011;72210;47.076;15.430;2024-02-26T08:33:43;0.60;;;0.60;;
61036;SDS011;72210;47.076;15.430;2024-02-26T08:36:11;0.60;;;0.60;;
61036;SDS011;72210;47.076;15.430;2024-02-26T08:38:38;0.60;;;0.50;;
61036;SDS011;72210;47.076;15.430;2024-02-26T08:41:08;0.52;;;0.50;;
61036;SDS011;72210;47.076;15.430;2024-02-26T08:43:36;0.60;;;0.50;;
61036;SDS011;72210;47.076;15.430;2024-02-26T08:46:03;0.65;;;0.55;;
61036;SDS011;72210;47.076;15.430;2024-02-26T08:48:31;0.70;;;0.60;;
61036;SDS011;72210;47.076;15.430;2024-02-26T08:50:59;0.80;;;0.50;;
61036;SDS011;72210;47.076;15.430;2024-02-26T08:53:26;0.60;;;0.50;;
61036;SDS011;72210;47.076;15.430;2024-02-26T08:56:09;0.63;;;0.50;;
61036;SDS011;72210;47.076;15.430;2024-02-26T08:58:36;0.60;;;0.50;;
61036;SDS011;72210;47.076;15.430;2024-02-26T09:01:05;0.60;;;0.50;;
61036;SDS011;72210;47.076;15.430;2024-02-26T09:03:32;0.70;;;0.60;;
61036;SDS011;72210;47.076;15.430;2024-02-26T09:06:00;1.23;;;0.60;;
61036;SDS011;72210;47.076;15.430;2024-02-26T09:08:28;0.77;;;0.60;;
61036;SDS011;72210;47.076;15.430;2024-02-26T09:10:55;0.70;;;0.63;;
61036;SDS011;72210;47.076;15.430;2024-02-26T09:13:26;0.70;;;0.60;;
61036;SDS011;72210;47.076;15.430;2024-02-26T09:15:54;0.68;;;0.50;;
61036;SDS011;72210;47.076;15.430;2024-02-26T09:18:21;0.47;;;0.40;;
61036;SDS011;72210;47.076;15.430;2024-02-26T09:20:49;0.50;;;0.40;;
61036;SDS011;72210;47.076;15.430;2024-02-26T09:23:16;0.50;;;0.40;;
61036;SDS011;72210;47.076;15.430;2024-02-26T09:25:44;0.70;;;0.55;;
61036;SDS011;72210;47.076;15.430;2024-02-26T09:28:11;0.60;;;0.50;;
61036;SDS011;72210;47.076;15.430;2024-02-26T09:30:41;0.40;;;0.40;;
61036;SDS011;72210;47.076;15.430;2024-02-26T09:33:09;0.50;;;0.40;;
61036;SDS011;72210;47.076;15.430;2024-02-26T09:35:37;0.40;;;0.40;;
61036;SDS011;72210;47.076;15.430;2024-02-26T09:38:05;0.57;;;0.50;;
61036;SDS011;72210;47.076;15.430;2024-02-26T09:40:35;0.45;;;0.40;;
61036;SDS011;72210;47.076;15.430;2024-02-26T09:43:03;0.35;;;0.35;;
61036;SDS011;72210;47.076;15.430;2024-02-26T09:45:32;0.50;;;0.40;;
61036;SDS011;72210;47.076;15.430;2024-02-26T09:48:03;0.70;;;0.50;;
61036;SDS011;72210;47.076;15.430;2024-02-26T09:50:33;0.63;;;0.40;;
61036;SDS011;72210;47.076;15.430;2024-02-26T09:53:00;0.30;;;0.20;;
61036;SDS011;72210;47.076;15.430;2024-02-26T09:55:29;0.30;;;0.30;;
61036;SDS011;72210;47.076;15.430;2024-02-26T09:57:57;0.75;;;0.52;;
61036;SDS011;72210;47.076;15.430;2024-02-26T10:00:25;0.80;;;0.70;;
61036;SDS011;72210;47.076;15.430;2024-02-26T10:02:59;0.68;;;0.60;;
61036;SDS011;72210;47.076;15.430;2024-02-26T10:05:31;0.60;;;0.40;;
61036;SDS011;72210;47.076;15.430;2024-02-26T10:08:01;0.45;;;0.40;;
61036;SDS011;72210;47.076;15.430;2024-02-26T10:10:28;0.30;;;0.30;;
61036;SDS011;72210;47.076;15.430;2024-02-26T10:12:56;0.60;;;0.45;;
61036;SDS011;72210;47.076;15.430;2024-02-26T10:15:24;0.40;;;0.38;;
61036;SDS011;72210;47.076;15.430;2024-02-26T10:17:51;0.30;;;0.30;;
61036;SDS011;72210;47.076;15.430;2024-02-26T10:20:21;0.40;;;0.32;;
61036;SDS011;72210;47.076;15.430;2024-02-26T10:22:49;0.32;;;0.30;;
61036;SDS011;72210;47.076;15.430;2024-02-26T10:25:19;0.60;;;0.50;;
61036;SDS011;72210;47.076;15.430;2024-02-26T10:27:47;0.45;;;0.40;;
61036;SDS011;72210;47.076;15.430;2024-02-26T10:30:18;0.30;;;0.30;;
61036;SDS011;72210;47.076;15.430;2024-02-26T10:32:47;0.40;;;0.30;;
61036;SDS011;72210;47.076;15.430;2024-02-26T10:35:16;0.38;;;0.30;;
61036;SDS011;72210;47.076;15.430;2024-02-26T10:37:45;0.40;;;0.30;;
61036;SDS011;72210;47.076;15.430;2024-02-26T10:40:13;0.32;;;0.22;;
61036;SDS011;72210;47.076;15.430;2024-02-26T10:42:42;0.30;;;0.30;;
61036;SDS011;72210;47.076;15.430;2024-02-26T10:45:10;0.30;;;0.30;;
61036;SDS011;72210;47.076;15.430;2024-02-26T10:47:38;0.40;;;0.30;;
61036;SDS011;72210;47.076;15.430;2024-02-26T10:50:07;0.32;;;0.30;;
61036;SDS011;72210;47.076;15.430;2024-02-26T10:52:35;0.40;;;0.30;;
61036;SDS011;72210;47.076;15.430;2024-02-26T10:55:06;0.28;;;0.20;;
61036;SDS011;72210;47.076;15.430;2024-02-26T10:57:37;0.40;;;0.30;;
61036;SDS011;72210;47.076;15.430;2024-02-26T11:00:13;0.30;;;0.28;;
61036;SDS011;72210;47.076;15.430;2024-02-26T11:02:42;0.20;;;0.20;;
61036;SDS011;72210;47.076;15.430;2024-02-26T11:05:11;0.38;;;0.30;;
61036;SDS011;72210;47.076;15.430;2024-02-26T11:07:40;0.40;;;0.30;;
61036;SDS011;72210;47.076;15.430;2024-02-26T11:10:11;0.22;;;0.20;;
61036;SDS011;72210;47.076;15.430;2024-02-26T11:12:39;0.30;;;0.20;;
61036;SDS011;72210;47.076;15.430;2024-02-26T11:15:08;0.30;;;0.20;;
61036;SDS011;72210;47.076;15.430;2024-02-26T11:17:36;0.30;;;0.20;;
61036;SDS011;72210;47.076;15.430;2024-02-26T11:20:05;0.20;;;0.20;;
61036;SDS011;72210;47.076;15.430;2024-02-26T11:22:38;0.30;;;0.20;;
61036;SDS011;72210;47.076;15.430;2024-02-26T11:25:06;0.32;;;0.28;;
61036;SDS011;72210;47.076;15.430;2024-02-26T11:27:37;0.30;;;0.20;;
61036;SDS011;72210;47.076;15.430;2024-02-26T11:30:17;0.40;;;0.40;;
61036;SDS011;72210;47.076;15.430;2024-02-26T11:32:48;0.35;;;0.35;;
61036;SDS011;72210;47.076;15.430;2024-02-26T11:35:17;0.25;;;0.20;;
61036;SDS011;72210;47.076;15.430;2024-02-26T11:37:54;0.30;;;0.20;;
61036;SDS011;72210;47.076;15.430;2024-02-26T11:40:22;0.30;;;0.22;;
61036;SDS011;72210;47.076;15.430;2024-02-26T11:42:52;0.30;;;0.20;;
61036;SDS011;72210;47.076;15.430;2024-02-26T11:48:22;0.40;;;0.38;;
61036;SDS011;72210;47.076;15.430;2024-02-26T11:50:52;0.57;;;0.40;;
61036;SDS011;72210;47.076;15.430;2024-02-26T11:53:21;0.30;;;0.30;;
61036;SDS011;72210;47.076;15.430;2024-02-26T11:58:49;0.30;;;0.30;;
61036;SDS011;72210;47.076;15.430;2024-02-26T12:04:19;0.20;;;0.20;;
61036;SDS011;72210;47.076;15.430;2024-02-26T12:06:51;0.30;;;0.20;;
61036;SDS011;72210;47.076;15.430;2024-02-26T12:09:36;0.40;;;0.30;;
61036;SDS011;72210;47.076;15.430;2024-02-26T12:12:06;0.30;;;0.20;;
61036;SDS011;72210;47.076;15.430;2024-02-26T12:14:39;0.43;;;0.25;;
61036;SDS011;72210;47.076;15.430;2024-02-26T12:17:07;0.30;;;0.20;;
61036;SDS011;72210;47.076;15.430;2024-02-26T12:19:46;0.30;;;0.20;;
61036;SDS011;72210;47.076;15.430;2024-02-26T12:22:14;0.40;;;0.30;;
61036;SDS011;72210;47.076;15.430;2024-02-26T12:24:41;0.30;;;0.20;;
61036;SDS011;72210;47.076;15.430;2024-02-26T12:27:09;0.30;;;0.28;;
61036;SDS011;72210;47.076;15.430;2024-02-26T12:29:36;0.30;;;0.30;;
61036;SDS011;72210;47.076;15.430;2024-02-26T12:32:06;0.30;;;0.30;;
61036;SDS011;72210;47.076;15.430;2024-02-26T12:34:34;0.20;;;0.20;;
61036;SDS011;72210;47.076;15.430;2024-02-26T12:37:02;0.25;;;0.25;;
61036;SDS011;72210;47.076;15.430;2024-02-26T12:39:30;0.32;;;0.30;;
61036;SDS011;72210;47.076;15.430;2024-02-26T12:41:58;0.30;;;0.30;;
61036;SDS011;72210;47.076;15.430;2024-02-26T12:44:26;0.40;;;0.30;;
61036;SDS011;72210;47.076;15.430;2024-02-26T12:46:59;0.30;;;0.25;;
61036;SDS011;72210;47.076;15.430;2024-02-26T12:49:29;0.38;;;0.32;;
61036;SDS011;72210;47.076;15.430;2024-02-26T12:51:59;0.30;;;0.30;;
61036;SDS011;72210;47.076;15.430;2024-02-26T12:54:27;0.30;;;0.30;;
61036;SDS011;72210;47.076;15.430;2024-02-26T12:56:55;0.30;;;0.30;;
61036;SDS011;72210;47.076;15.430;2024-02-26T12:59:23;0.45;;;0.30;;
61036;SDS011;72210;47.076;15.430;2024-02-26T13:01:51;0.40;;;0.30;;
61036;SDS011;72210;47.076;15.430;2024-02-26T13:04:18;0.40;;;0.40;;
61036;SDS011;72210;47.076;15.430;2024-02-26T13:06:48;0.32;;;0.30;;
61036;SDS011;72210;47.076;15.430;2024-02-26T13:09:15;0.50;;;0.40;;
61036;SDS011;72210;47.076;15.430;2024-02-26T13:11:44;0.30;;;0.20;;
61036;SDS011;72210;47.076;15.430;2024-02-26T13:14:18;0.32;;;0.30;;
61036;SDS011;72210;47.076;15.430;2024-02-26T13:16:54;0.28;;;0.28;;
61036;SDS011;72210;47.076;15.430;2024-02-26T13:19:21;0.40;;;0.30;;
61036;SDS011;72210;47.076;15.430;2024-02-26T13:21:51;0.55;;;0.38;;
61036;SDS011;72210;47.076;15.430;2024-02-26T13:24:20;0.30;;;0.20;;
61036;SDS011;72210;47.076;15.430;2024-02-26T13:26:50;0.47;;;0.20;;
61036;SDS011;72210;47.076;15.430;2024-02-26T13:29:21;0.32;;;0.30;;
61036;SDS011;72210;47.076;15.430;2024-02-26T13:31:48;0.40;;;0.38;;
61036;SDS011;72210;47.076;15.430;2024-02-26T13:34:24;0.30;;;0.30;;
61036;SDS011;72210;47.076;15.430;2024-02-26T13:36:53;0.30;;;0.30;;
61036;SDS011;72210;47.076;15.430;2024-02-26T13:39:22;0.38;;;0.30;;
61036;SDS011;72210;47.076;15.430;2024-02-26T13:41:49;0.40;;;0.32;;
61036;SDS011;72210;47.076;15.430;2024-02-26T13:44:18;0.40;;;0.30;;
61036;SDS011;72210;47.076;15.430;2024-02-26T13:46:49;0.30;;;0.30;;
61036;SDS011;72210;47.076;15.430;2024-02-26T13:49:16;0.30;;;0.30;;
61036;SDS011;72210;47.076;15.430;2024-02-26T13:51:43;0.30;;;0.30;;
61036;SDS011;72210;47.076;15.430;2024-02-26T13:54:13;0.40;;;0.30;;
61036;SDS011;72210;47.076;15.430;2024-02-26T13:56:40;0.20;;;0.20;;
61036;SDS011;72210;47.076;15.430;2024-02-26T13:59:11;0.30;;;0.30;;
61036;SDS011;72210;47.076;15.430;2024-02-26T14:01:39;0.52;;;0.30;;
61036;SDS011;72210;47.076;15.430;2024-02-26T14:04:06;0.30;;;0.20;;
61036;SDS011;72210;47.076;15.430;2024-02-26T14:06:34;0.30;;;0.30;;
61036;SDS011;72210;47.076;15.430;2024-02-26T14:09:02;0.80;;;0.30;;
61036;SDS011;72210;47.076;15.430;2024-02-26T14:11:33;0.30;;;0.30;;
61036;SDS011;72210;47.076;15.430;2024-02-26T14:14:00;0.30;;;0.30;;
61036;SDS011;72210;47.076;15.430;2024-02-26T14:16:27;0.30;;;0.30;;
61036;SDS011;72210;47.076;15.430;2024-02-26T14:18:58;0.30;;;0.30;;
61036;SDS011;72210;47.076;15.430;2024-02-26T14:21:28;0.30;;;0.30;;
61036;SDS011;72210;47.076;15.430;2024-02-26T14:23:55;0.38;;;0.30;;
61036;SDS011;72210;47.076;15.430;2024-02-26T14:26:23;0.28;;;0.28;;
61036;SDS011;72210;47.076;15.430;2024-02-26T14:28:52;0.40;;;0.30;;
61036;SDS011;72210;47.076;15.430;2024-02-26T14:31:20;0.30;;;0.30;;
61036;SDS011;72210;47.076;15.430;2024-02-26T14:33:47;0.30;;;0.30;;
61036;SDS011;72210;47.076;15.430;2024-02-26T14:36:17;0.30;;;0.30;;
61036;SDS011;72210;47.076;15.430;2024-02-26T14:38:44;0.30;;;0.30;;
61036;SDS011;72210;47.076;15.430;2024-02-26T14:41:12;0.40;;;0.30;;
61036;SDS011;72210;47.076;15.430;2024-02-26T14:43:39;0.20;;;0.20;;
61036;SDS011;72210;47.076;15.430;2024-02-26T14:46:11;0.40;;;0.30;;
61036;SDS011;72210;47.076;15.430;2024-02-26T14:48:39;0.30;;;0.30;;